Time;durP1;ratioP1;P1;durP2;ratioP2;P2;SDS_P1;SDS_P2;PMS_P1;PMS_P2;Temp;Humidity;BMP_temperature;BMP_pressure;BME280_temperature;BME280_humidity;BME280_pressure;Samples;Min_cycle;Max_cycle;Signal;HPM_P1;HPM_P2
2024/01/28 00:04:53;;;;;;;7.30;3.73;;;;;;;3.69;78.33;100865.47;7211200;40;20386;31
2024/01/28 00:10:30;;;;;;;7.40;3.50;;;;;;;3.66;78.51;100854.13;7248581;40;20346;31
2024/01/28 00:16:06;;;;;;;8.60;3.63;;;;;;;3.60;77.67;100853.50;7249067;40;20234;31
2024/01/28 00:21:42;;;;;;;8.47;3.77;;;;;;;3.61;77.61;100849.03;7254343;40;20245;31
2024/01/28 00:27:17;;;;;;;8.00;3.63;;;;;;;3.53;77.96;100837.91;7298080;39;20700;31
2024/01/28 00:32:40;;;;;;;5.35;3.40;;;;;;;3.49;78.15;100836.38;7288087;39;20265;31
2024/01/28 00:43:19;;;;;;;7.60;3.70;;;;;;;3.37;79.58;100829.03;7299287;39;20287;31
2024/01/28 00:48:54;;;;;;;9.10;3.67;;;;;;;3.43;78.39;100829.53;7331423;39;21318;31
2024/01/28 00:54:29;;;;;;;7.57;4.17;;;;;;;3.42;78.82;100827.81;7368612;39;20239;31
2024/01/28 01:00:04;;;;;;;8.97;3.70;;;;;;;3.27;77.84;100820.66;7340540;39;21319;31
2024/01/28 01:05:41;;;;;;;8.20;3.80;;;;;;;3.09;78.31;100810.94;7275926;39;21340;31
2024/01/28 01:11:15;;;;;;;7.80;3.75;;;;;;;3.15;79.06;100815.97;7321933;39;20368;31
2024/01/28 01:16:52;;;;;;;10.10;3.80;;;;;;;3.01;79.60;100818.47;7353948;39;20373;31
2024/01/28 01:22:14;;;;;;;7.00;3.50;;;;;;;3.00;79.88;100819.41;7276567;39;21304;31
2024/01/28 01:32:54;;;;;;;7.75;3.45;;;;;;;2.89;78.86;100819.13;7284046;39;20609;31
2024/01/28 01:43:31;;;;;;;7.65;3.40;;;;;;;2.86;79.32;100816.59;7336370;39;20278;31
2024/01/28 01:49:08;;;;;;;7.93;3.90;;;;;;;2.97;78.83;100796.47;7317669;39;20250;31
2024/01/28 01:54:44;;;;;;;7.15;3.65;;;;;;;2.97;79.83;100799.16;7281640;39;20256;31
2024/01/28 02:00:22;;;;;;;5.60;3.20;;;;;;;2.87;80.40;100784.56;7279401;39;20249;31
2024/01/28 02:05:59;;;;;;;6.95;3.75;;;;;;;2.85;79.35;100788.28;7267275;39;20669;31
2024/01/28 02:11:35;;;;;;;7.43;3.87;;;;;;;2.76;79.87;100783.41;7207362;40;20695;31
2024/01/28 02:17:11;;;;;;;6.80;3.70;;;;;;;2.71;78.74;100780.97;7252489;40;20241;31
2024/01/28 02:22:47;;;;;;;7.53;3.43;;;;;;;2.63;79.27;100777.84;7251752;40;20258;31
2024/01/28 02:28:24;;;;;;;6.90;3.20;;;;;;;2.55;80.08;100780.88;7226291;40;20256;31
2024/01/28 02:33:46;;;;;;;6.87;3.40;;;;;;;2.57;79.22;100776.34;7229951;40;20323;31
2024/01/28 02:39:06;;;;;;;8.30;3.10;;;;;;;2.53;79.46;100769.47;7276155;39;20319;31
2024/01/28 02:44:43;;;;;;;8.55;3.90;;;;;;;2.59;80.53;100768.31;7339107;39;20251;31
2024/01/28 02:50:19;;;;;;;8.07;4.07;;;;;;;2.57;80.30;100751.53;7334575;39;20797;31
2024/01/28 02:55:36;;;;;;;7.43;3.43;;;;;;;2.51;80.05;100749.19;7375403;39;21386;31
2024/01/28 03:07:12;;;;;;;5.33;3.47;;;;;;;2.35;78.78;100741.13;7349276;39;20260;31
2024/01/28 03:17:38;;;;;;;6.37;3.70;;;;;;;2.26;79.52;100757.53;7300627;39;20271;31
2024/01/28 03:28:20;;;;;;;5.87;3.50;;;;;;;2.06;80.08;100766.47;7332449;39;20769;31
2024/01/28 03:39:00;;;;;;;7.00;3.57;;;;;;;2.01;80.71;100762.34;7327631;39;20271;31
2024/01/28 03:44:37;;;;;;;9.45;4.15;;;;;;;1.97;80.82;100766.97;7300286;39;20233;31
2024/01/28 03:50:13;;;;;;;5.95;3.55;;;;;;;2.06;80.95;100765.66;7296955;39;20256;31
2024/01/28 03:55:49;;;;;;;8.50;3.70;;;;;;;2.02;80.40;100769.41;7277677;39;20228;31
2024/01/28 04:01:23;;;;;;;9.20;3.80;;;;;;;1.96;80.02;100769.69;7202817;40;20353;31
2024/01/28 04:06:59;;;;;;;6.10;3.50;;;;;;;2.01;80.64;100771.19;7188344;40;20242;31
2024/01/28 04:12:35;;;;;;;6.80;3.25;;;;;;;1.99;81.06;100767.72;7157529;40;20688;31
2024/01/28 04:18:11;;;;;;;4.63;3.40;;;;;;;2.02;80.88;100772.87;7155538;40;20399;31
2024/01/28 04:23:32;;;;;;;8.35;3.70;;;;;;;2.09;80.14;100773.47;7221101;40;20707;31
2024/01/28 04:34:10;;;;;;;5.00;3.70;;;;;;;2.00;80.97;100764.12;7231394;40;21331;31
2024/01/28 04:39:31;;;;;;;9.40;3.50;;;;;;;2.10;80.71;100756.59;7320548;39;20324;31
2024/01/28 04:45:06;;;;;;;6.30;3.80;;;;;;;1.98;80.79;100747.38;7370988;39;20232;31
2024/01/28 04:50:42;;;;;;;9.60;3.50;;;;;;;1.88;79.89;100745.25;7340513;39;20374;31
2024/01/28 04:56:02;;;;;;;7.57;3.57;;;;;;;1.90;80.83;100748.69;7329669;39;20393;31
2024/01/28 05:01:22;;;;;;;5.13;3.60;;;;;;;1.84;80.58;100759.63;7286575;39;20249;31
2024/01/28 05:06:56;;;;;;;8.20;3.80;;;;;;;1.73;80.51;100755.69;7304765;39;20313;31
2024/01/28 05:12:16;;;;;;;7.67;3.67;;;;;;;1.80;80.95;100742.94;7317917;39;20351;31
2024/01/28 05:17:51;;;;;;;7.90;3.67;;;;;;;1.64;81.21;100744.63;7326756;39;20236;31
2024/01/28 05:23:27;;;;;;;11.53;3.67;;;;;;;1.54;81.26;100751.28;7305148;39;20322;31
2024/01/28 05:29:05;;;;;;;6.73;3.80;;;;;;;1.61;81.13;100752.75;7256876;40;20246;31
2024/01/28 05:34:38;;;;;;;8.97;3.90;;;;;;;1.64;80.99;100745.50;7235246;40;20901;31
2024/01/28 05:40:15;;;;;;;6.32;3.67;;;;;;;1.50;80.47;100749.72;7252201;39;21553;31
2024/01/28 05:45:36;;;;;;;7.10;3.90;;;;;;;1.51;81.29;100747.00;7240289;40;20346;31
2024/01/28 05:51:12;;;;;;;7.27;4.07;;;;;;;1.50;80.72;100744.41;7279529;40;20253;31
2024/01/28 05:56:45;;;;;;;6.75;3.50;;;;;;;1.49;81.27;100742.69;7047511;40;21462;31
2024/01/28 06:02:21;;;;;;;7.25;4.20;;;;;;;1.43;81.83;100751.81;7274628;40;20345;31
2024/01/28 06:07:57;;;;;;;5.10;3.50;;;;;;;1.40;81.23;100741.34;7238993;40;20391;31
2024/01/28 06:13:29;;;;;;;6.67;3.80;;;;;;;1.44;81.25;100740.25;7214755;40;20682;31
2024/01/28 06:19:04;;;;;;;7.83;4.13;;;;;;;1.41;81.10;100735.06;7240218;39;20260;31
2024/01/28 06:29:47;;;;;;;7.70;4.30;;;;;;;1.28;81.05;100726.81;7297947;39;20792;31
2024/01/28 06:40:08;;;;;;;7.57;3.58;;;;;;;1.30;81.40;100732.06;7322466;39;21334;31
2024/01/28 06:45:42;;;;;;;9.70;3.85;;;;;;;1.37;81.71;100725.53;7332228;39;21178;31
2024/01/28 06:56:22;;;;;;;7.47;4.10;;;;;;;1.25;81.43;100721.66;7316276;39;20759;31
2024/01/28 07:01:59;;;;;;;9.50;4.10;;;;;;;1.26;81.45;100723.38;7314918;39;20292;31
2024/01/28 07:12:23;;;;;;;6.50;4.00;;;;;;;1.28;81.56;100733.91;7317638;39;20735;31
2024/01/28 07:17:43;;;;;;;4.80;3.47;;;;;;;1.24;82.25;100733.19;7318414;39;20508;31
2024/01/28 07:23:18;;;;;;;6.87;3.70;;;;;;;1.24;81.53;100734.97;7325308;39;21363;31
2024/01/28 07:28:54;;;;;;;5.43;3.67;;;;;;;1.29;81.28;100736.50;7341347;39;20247;31
2024/01/28 07:34:30;;;;;;;6.20;3.60;;;;;;;1.33;81.34;100739.88;7319764;39;20241;31
2024/01/28 07:40:06;;;;;;;8.10;3.93;;;;;;;1.29;81.77;100730.31;7268957;39;20260;31
2024/01/28 07:45:42;;;;;;;9.87;3.90;;;;;;;1.27;82.70;100732.22;7287651;39;20249;31
2024/01/28 07:51:17;;;;;;;8.50;3.50;;;;;;;1.34;82.31;100730.97;7267682;40;20256;31
2024/01/28 07:56:55;;;;;;;4.20;3.40;;;;;;;1.45;81.87;100727.84;7262186;40;20620;31
2024/01/28 08:02:15;;;;;;;6.63;4.00;;;;;;;1.44;81.75;100734.09;7237883;40;20242;31
2024/01/28 08:07:49;;;;;;;6.60;3.90;;;;;;;1.47;82.81;100737.44;7220522;40;20246;31
2024/01/28 08:13:25;;;;;;;7.95;4.20;;;;;;;1.44;83.10;100723.47;7192104;40;20246;31
2024/01/28 08:18:47;;;;;;;5.40;4.10;;;;;;;1.55;82.97;100732.63;7258919;40;20246;31
2024/01/28 08:24:07;;;;;;;8.87;4.07;;;;;;;1.72;82.91;100729.16;7268475;39;20257;31
2024/01/28 08:29:43;;;;;;;6.43;3.83;;;;;;;1.78;83.62;100728.87;7302944;39;21323;31
2024/01/28 08:35:18;;;;;;;22.90;14.30;;;;;;;1.89;83.67;100723.91;7271538;39;20251;31
2024/01/28 08:40:53;;;;;;;6.60;4.40;;;;;;;2.00;84.00;100724.25;7283984;39;20263;31
2024/01/28 08:46:30;;;;;;;7.35;4.55;;;;;;;2.12;83.74;100728.09;7285917;39;20259;31
2024/01/28 08:51:52;;;;;;;9.50;4.90;;;;;;;2.26;83.96;100736.25;7229761;40;20269;31
2024/01/28 08:57:26;;;;;;;11.60;4.37;;;;;;;2.35;83.56;100734.94;7256173;40;20238;31
2024/01/28 09:03:02;;;;;;;9.07;4.70;;;;;;;2.43;82.78;100738.06;7240023;40;20355;31
2024/01/28 09:08:25;;;;;;;7.10;4.50;;;;;;;2.59;82.58;100742.53;7221603;40;20608;31
2024/01/28 09:14:00;;;;;;;7.97;5.10;;;;;;;2.68;83.31;100730.53;7254180;39;20347;31
2024/01/28 09:19:36;;;;;;;8.47;4.60;;;;;;;2.76;82.33;100741.69;7252193;40;20437;31
2024/01/28 09:30:00;;;;;;;8.47;4.47;;;;;;;3.02;82.97;100751.84;7256189;40;20826;31
2024/01/28 09:40:36;;;;;;;8.27;5.40;;;;;;;3.14;81.44;100744.97;7323380;39;21395;31
2024/01/28 09:46:12;;;;;;;9.30;4.90;;;;;;;3.23;83.02;100735.63;7316241;39;20253;31
2024/01/28 09:51:48;;;;;;;7.90;5.60;;;;;;;3.34;82.55;100735.91;7296838;39;20761;31
2024/01/28 09:57:24;;;;;;;9.15;4.75;;;;;;;3.39;81.74;100723.19;7240376;40;20261;31
2024/01/28 10:02:59;;;;;;;10.93;4.80;;;;;;;3.50;81.61;100734.16;7196385;40;20378;31
2024/01/28 10:08:20;;;;;;;7.73;4.47;;;;;;;3.60;82.57;100736.19;7229105;40;20287;31
2024/01/28 10:13:56;;;;;;;7.00;4.83;;;;;;;3.69;81.21;100736.62;7296923;39;20251;31
2024/01/28 10:19:17;;;;;;;12.30;4.85;;;;;;;3.77;81.75;100745.09;7272134;39;20242;31
2024/01/28 10:24:53;;;;;;;7.97;4.70;;;;;;;3.78;81.71;100741.44;7280661;39;20481;31
2024/01/28 10:30:30;;;;;;;9.13;4.37;;;;;;;3.87;80.42;100744.47;7296059;39;20240;31
2024/01/28 10:36:06;;;;;;;7.15;4.32;;;;;;;3.92;80.69;100742.41;7233564;40;20241;31
2024/01/28 10:41:42;;;;;;;15.80;8.50;;;;;;;4.01;79.85;100733.03;7258569;40;20346;31
2024/01/28 10:47:20;;;;;;;9.97;6.03;;;;;;;4.11;81.04;100730.69;7239329;40;20238;31
2024/01/28 10:52:56;;;;;;;8.97;5.70;;;;;;;4.20;81.14;100739.03;7228607;40;20636;31
2024/01/28 10:58:30;;;;;;;8.83;5.57;;;;;;;4.26;79.93;100730.66;7277646;40;20252;31
2024/01/28 11:04:05;;;;;;;9.80;5.30;;;;;;;4.37;80.26;100714.03;7286235;39;20251;31
2024/01/28 11:09:40;;;;;;;8.70;5.30;;;;;;;4.48;79.93;100704.44;7310087;39;20542;31
2024/01/28 11:15:16;;;;;;;39.95;23.20;;;;;;;4.60;80.17;100694.84;7302598;39;20230;31
2024/01/28 11:20:50;;;;;;;10.00;5.87;;;;;;;4.72;79.98;100680.75;7279593;39;20241;31
2024/01/28 11:26:27;;;;;;;9.20;5.20;;;;;;;4.83;79.32;100680.06;7268937;39;20257;31
2024/01/28 11:32:03;;;;;;;11.40;5.00;;;;;;;4.89;79.20;100669.88;7249229;40;20672;31
2024/01/28 11:37:39;;;;;;;7.67;5.00;;;;;;;4.96;78.90;100670.34;7185961;40;20257;31
2024/01/28 11:43:15;;;;;;;9.70;5.20;;;;;;;5.11;78.88;100664.06;7159864;40;20243;31
2024/01/28 11:48:36;;;;;;;8.40;5.27;;;;;;;5.30;79.08;100667.31;7219286;40;20235;31
2024/01/28 11:59:28;;;;;;;9.10;5.60;;;;;;;5.56;77.87;100652.25;7238839;39;21312;31
2024/01/28 12:04:48;;;;;;;12.20;5.10;;;;;;;5.75;77.38;100643.87;7266779;39;20230;31
2024/01/28 12:10:23;;;;;;;13.80;5.00;;;;;;;5.84;77.02;100632.56;7274394;39;20230;31
2024/01/28 12:16:00;;;;;;;7.43;4.83;;;;;;;6.00;76.88;100608.38;7322012;39;20251;31
2024/01/28 12:21:48;;;;;;;9.77;6.93;;;;;;;6.07;76.44;100605.19;7250132;39;21118;31
2024/01/28 12:32:28;;;;;;;9.23;4.67;;;;;;;6.31;74.09;100592.81;7294858;39;21562;31
2024/01/28 12:37:49;;;;;;;9.47;4.97;;;;;;;6.40;75.63;100585.97;7266335;40;20243;31
2024/01/28 12:48:30;;;;;;;9.30;5.23;;;;;;;6.65;75.36;100585.09;7323567;39;20638;31
2024/01/28 12:53:51;;;;;;;10.20;4.60;;;;;;;6.80;74.73;100586.72;7327718;39;20446;31
2024/01/28 12:59:24;;;;;;;8.60;4.80;;;;;;;6.94;74.23;100573.16;7386141;39;20379;31
2024/01/28 13:05:01;;;;;;;9.47;5.23;;;;;;;7.08;73.54;100564.12;7396663;39;20247;31
2024/01/28 13:10:19;;;;;;;7.70;5.30;;;;;;;7.20;74.22;100547.16;7311772;39;20524;31
2024/01/28 13:15:39;;;;;;;10.30;6.90;;;;;;;7.23;73.66;100560.34;7248343;40;20398;31
2024/01/28 13:21:16;;;;;;;10.15;5.55;;;;;;;7.24;72.71;100556.69;7255952;40;20284;31
2024/01/28 13:26:51;;;;;;;8.55;5.45;;;;;;;7.27;72.55;100551.12;7282153;39;20368;31
2024/01/28 13:32:27;;;;;;;7.97;5.83;;;;;;;7.40;73.29;100540.34;7278242;40;20377;31
2024/01/28 13:38:03;;;;;;;9.47;5.60;;;;;;;7.47;72.18;100530.84;7297910;39;20303;31
2024/01/28 13:43:38;;;;;;;7.83;5.77;;;;;;;7.50;72.15;100538.69;7256695;40;20277;31
2024/01/28 13:49:14;;;;;;;14.93;10.17;;;;;;;7.47;71.92;100525.50;7272449;39;20260;31
2024/01/28 13:54:51;;;;;;;19.05;11.63;;;;;;;7.42;70.57;100538.37;7245543;40;20262;31
2024/01/28 14:00:24;;;;;;;15.23;8.85;;;;;;;7.35;72.11;100542.50;7236054;40;20498;31
2024/01/28 14:05:59;;;;;;;15.17;6.27;;;;;;;7.39;73.03;100535.94;7217273;40;20613;31
2024/01/28 14:11:35;;;;;;;8.30;5.75;;;;;;;7.36;72.63;100530.81;7269073;39;20280;31
2024/01/28 14:22:01;;;;;;;11.55;6.30;;;;;;;7.40;73.50;100518.87;7380954;39;20260;31
2024/01/28 14:27:36;;;;;;;6.95;5.15;;;;;;;7.32;73.35;100513.25;7322680;39;20340;31
2024/01/28 14:32:54;;;;;;;8.45;5.50;;;;;;;7.33;73.37;100514.97;7312784;39;20455;31
2024/01/28 14:38:28;;;;;;;7.73;5.30;;;;;;;7.27;72.85;100518.09;7359703;39;20371;31
2024/01/28 14:44:01;;;;;;;14.10;10.63;;;;;;;7.15;72.92;100517.16;7310406;39;21387;31
2024/01/28 14:49:36;;;;;;;7.67;5.60;;;;;;;7.14;73.34;100516.31;7284634;39;20237;31
2024/01/28 14:54:58;;;;;;;8.53;5.53;;;;;;;7.15;73.75;100514.50;7267039;40;20603;31
2024/01/28 15:00:34;;;;;;;8.54;6.60;;;;;;;7.07;73.75;100506.13;7310614;39;20280;31
2024/01/28 15:06:09;;;;;;;7.35;5.85;;;;;;;6.99;73.63;100512.06;7283054;39;20268;31
2024/01/28 15:11:30;;;;;;;8.55;5.70;;;;;;;6.98;74.23;100520.19;7289528;39;20257;31
2024/01/28 15:17:05;;;;;;;8.05;5.65;;;;;;;6.88;74.20;100511.13;7314745;39;20377;31
2024/01/28 15:22:41;;;;;;;9.47;5.93;;;;;;;6.84;73.33;100515.00;7298731;39;20821;31
2024/01/28 15:28:02;;;;;;;11.27;7.13;;;;;;;6.80;73.45;100517.88;7277081;39;20352;31
2024/01/28 15:33:38;;;;;;;11.35;5.90;;;;;;;6.75;74.37;100511.16;7289600;39;20326;31
2024/01/28 15:39:00;;;;;;;9.55;7.70;;;;;;;6.77;75.07;100514.56;7227484;40;20399;31
2024/01/28 15:44:20;;;;;;;19.60;10.10;;;;;;;6.76;74.19;100512.84;7215722;40;20245;31
2024/01/28 15:49:56;;;;;;;17.55;12.00;;;;;;;6.65;74.90;100508.28;7298013;40;20303;31
2024/01/28 15:55:33;;;;;;;8.60;6.10;;;;;;;6.55;75.27;100503.66;7258243;40;20255;31
2024/01/28 16:01:08;;;;;;;10.75;6.00;;;;;;;6.25;75.31;100504.87;7235577;40;20354;31
2024/01/28 16:06:46;;;;;;;9.10;5.63;;;;;;;6.02;75.26;100505.59;7230866;40;20375;31
2024/01/28 16:12:07;;;;;;;10.00;5.93;;;;;;;5.87;75.86;100512.03;7266548;39;20465;31
2024/01/28 16:17:28;;;;;;;12.20;6.25;;;;;;;5.62;76.73;100517.25;7254876;40;20273;31
2024/01/28 16:28:09;;;;;;;7.87;4.80;;;;;;;5.50;76.91;100504.72;7300792;39;20822;31
2024/01/28 16:33:29;;;;;;;11.85;5.15;;;;;;;5.39;76.76;100509.00;7340565;39;20326;31
2024/01/28 16:38:49;;;;;;;8.30;5.45;;;;;;;5.30;76.66;100512.28;7332135;39;20372;31
2024/01/28 16:44:26;;;;;;;7.75;4.80;;;;;;;5.18;76.62;100501.53;7318508;39;20256;31
2024/01/28 16:49:47;;;;;;;7.30;5.05;;;;;;;5.10;77.31;100506.50;7272797;40;20371;31
2024/01/28 16:55:22;;;;;;;10.70;5.80;;;;;;;4.97;76.64;100509.97;7278099;40;20338;31
2024/01/28 17:00:57;;;;;;;7.10;4.67;;;;;;;4.79;77.32;100508.47;7269326;39;20270;31
2024/01/28 17:11:22;;;;;;;6.25;4.55;;;;;;;4.76;77.74;100492.66;7388111;39;20405;31
2024/01/28 17:16:58;;;;;;;9.40;5.00;;;;;;;4.63;77.70;100490.84;7321831;39;20249;31
2024/01/28 17:22:34;;;;;;;10.07;6.73;;;;;;;4.54;78.20;100485.16;7303856;39;20241;31
2024/01/28 17:28:10;;;;;;;9.00;6.43;;;;;;;4.45;78.57;100484.87;7238487;40;20261;31
2024/01/28 17:33:42;;;;;;;14.80;9.90;;;;;;;4.41;78.52;100486.88;7217551;40;20246;31
2024/01/28 17:39:17;;;;;;;10.10;6.40;;;;;;;4.43;78.10;100481.44;7170227;40;20258;31
2024/01/28 17:44:37;;;;;;;9.40;6.80;;;;;;;4.35;78.99;100487.25;7168237;40;20330;31
2024/01/28 17:50:13;;;;;;;10.10;6.60;;;;;;;4.30;78.74;100484.00;7249354;39;20277;31
2024/01/28 17:55:33;;;;;;;9.73;6.10;;;;;;;4.27;79.08;100484.19;7324265;39;20274;31
2024/01/28 18:06:14;;;;;;;6.50;4.73;;;;;;;4.12;79.73;100481.63;7379696;39;20731;31
2024/01/28 18:16:53;;;;;;;6.40;5.23;;;;;;;4.02;79.99;100484.87;7338398;39;20557;31
2024/01/28 18:27:30;;;;;;;5.50;3.90;;;;;;;3.92;79.45;100481.03;7352232;39;20274;31
2024/01/28 18:38:10;;;;;;;7.03;3.97;;;;;;;3.86;80.14;100488.56;7349461;39;20599;31
2024/01/28 18:43:48;;;;;;;7.17;4.77;;;;;;;3.79;80.17;100484.53;7317678;39;20244;31
2024/01/28 18:49:06;;;;;;;5.77;4.20;;;;;;;3.87;80.33;100485.78;7286655;39;20329;31
2024/01/28 18:54:24;;;;;;;6.70;4.10;;;;;;;3.74;80.79;100489.28;7336606;39;21183;31
2024/01/28 18:59:55;;;;;;;8.50;4.93;;;;;;;3.68;80.77;100485.19;7347512;39;20259;31
2024/01/28 19:05:15;;;;;;;7.50;4.57;;;;;;;3.69;80.58;100483.34;7304684;39;20268;31
2024/01/28 19:10:52;;;;;;;9.13;5.50;;;;;;;3.64;80.67;100481.81;7316097;39;20261;31
2024/01/28 19:16:26;;;;;;;8.25;4.50;;;;;;;3.60;81.10;100485.63;7328445;39;20337;31
2024/01/28 19:21:58;;;;;;;6.20;4.17;;;;;;;3.63;81.27;100485.47;7057004;39;21224;31
2024/01/28 19:27:33;;;;;;;6.00;3.87;;;;;;;3.61;80.26;100484.69;7265573;39;20324;31
2024/01/28 19:33:09;;;;;;;6.65;4.20;;;;;;;3.54;80.69;100485.16;7268697;39;20316;31
2024/01/28 19:38:29;;;;;;;8.93;4.63;;;;;;;3.56;80.64;100488.56;7236803;40;20372;31
2024/01/28 19:43:50;;;;;;;11.75;7.55;;;;;;;3.44;81.07;100484.81;7247386;40;20249;31
2024/01/28 19:49:25;;;;;;;32.47;16.17;;;;;;;3.34;81.23;100478.31;7276242;40;20390;31
2024/01/28 19:54:45;;;;;;;35.90;20.43;;;;;;;3.31;80.78;100475.84;7254903;39;20277;31
2024/01/28 20:05:21;;;;;;;7.13;4.70;;;;;;;3.17;82.52;100481.09;7347304;39;21240;31
2024/01/28 20:10:56;;;;;;;6.23;4.50;;;;;;;3.17;82.06;100481.09;7332015;39;20316;31
2024/01/28 20:16:28;;;;;;;10.20;5.80;;;;;;;3.07;82.62;100480.75;7349681;39;20582;31
2024/01/28 20:22:04;;;;;;;9.30;6.27;;;;;;;3.09;81.93;100475.34;7295948;40;20381;31
2024/01/28 20:27:39;;;;;;;7.90;6.00;;;;;;;3.13;81.70;100474.22;7269239;39;20354;31
2024/01/28 20:33:15;;;;;;;7.47;4.60;;;;;;;3.19;82.58;100479.22;7248975;40;20375;31
2024/01/28 20:38:48;;;;;;;6.50;4.90;;;;;;;3.23;82.40;100470.09;7256112;39;20238;31
2024/01/28 20:44:26;;;;;;;9.83;6.50;;;;;;;3.31;81.74;100482.97;7276790;39;20349;31
2024/01/28 20:49:42;;;;;;;5.25;4.05;;;;;;;3.31;82.17;100478.50;7240761;40;20258;31
2024/01/28 20:55:18;;;;;;;6.73;4.60;;;;;;;3.30;82.58;100465.25;7276870;39;20268;31
2024/01/28 21:00:40;;;;;;;5.67;3.77;;;;;;;3.31;81.50;100465.19;7275470;39;20345;31
2024/01/28 21:06:01;;;;;;;4.40;3.60;;;;;;;3.34;81.56;100462.31;7315341;39;20236;31
2024/01/28 21:11:32;;;;;;;5.17;3.50;;;;;;;3.09;82.75;100465.56;7332720;39;20255;31
2024/01/28 21:16:54;;;;;;;5.45;3.60;;;;;;;3.02;81.85;100464.22;7277235;39;20241;31
2024/01/28 21:22:27;;;;;;;6.00;4.20;;;;;;;2.85;81.72;100455.47;7271424;40;20427;31
2024/01/28 21:28:01;;;;;;;6.37;3.73;;;;;;;2.80;83.28;100462.84;7274721;39;20257;31
2024/01/28 21:33:22;;;;;;;69.77;28.87;;;;;;;2.65;83.68;100459.25;7301758;39;20271;31
2024/01/28 21:38:41;;;;;;;7.47;4.57;;;;;;;2.69;86.46;100456.31;7325322;39;20248;31
2024/01/28 21:44:16;;;;;;;6.20;3.80;;;;;;;2.84;85.09;100451.94;7299627;40;20265;31
2024/01/28 21:49:49;;;;;;;6.17;4.07;;;;;;;2.89;86.29;100460.53;7242906;40;20223;31
2024/01/28 21:55:24;;;;;;;5.80;3.90;;;;;;;2.92;86.64;100451.50;7239396;40;20859;31
2024/01/28 22:01:00;;;;;;;5.50;4.20;;;;;;;2.92;84.91;100457.69;7235910;40;20257;31
2024/01/28 22:11:40;;;;;;;6.00;4.20;;;;;;;2.84;84.10;100461.72;7267911;40;20403;31
2024/01/28 22:17:11;;;;;;;4.25;3.50;;;;;;;2.94;83.52;100462.94;7294331;39;20899;31
2024/01/28 22:27:51;;;;;;;6.00;4.63;;;;;;;2.98;84.12;100451.16;7239113;40;20736;31
2024/01/28 22:38:29;;;;;;;4.77;3.90;;;;;;;3.03;82.36;100452.59;7271809;39;21313;31
2024/01/28 22:43:49;;;;;;;6.07;4.00;;;;;;;3.04;82.92;100456.12;7295411;39;20507;31
2024/01/28 22:49:24;;;;;;;6.70;4.90;;;;;;;2.91;83.33;100465.75;7292862;39;21400;31
2024/01/28 22:55:00;;;;;;;5.30;4.30;;;;;;;2.89;83.11;100465.84;7319356;39;21478;31
2024/01/28 23:05:41;;;;;;;14.70;11.00;;;;;;;2.58;82.77;100472.03;7235413;40;20340;31
2024/01/28 23:11:13;;;;;;;5.95;5.25;;;;;;;2.36;83.16;100474.16;7226074;40;20239;31
2024/01/28 23:16:33;;;;;;;6.65;4.60;;;;;;;2.37;84.24;100478.53;7248188;40;20547;31
2024/01/28 23:22:09;;;;;;;5.45;3.80;;;;;;;2.42;83.34;100479.12;7247091;40;20436;31
2024/01/28 23:27:45;;;;;;;6.27;4.53;;;;;;;2.52;83.22;100472.38;7316491;39;20643;31
2024/01/28 23:33:02;;;;;;;7.15;4.25;;;;;;;2.62;83.91;100478.91;7325726;39;20355;31
2024/01/28 23:38:23;;;;;;;7.20;3.75;;;;;;;2.58;83.85;100476.50;7349403;39;20381;31
2024/01/28 23:43:57;;;;;;;4.63;3.47;;;;;;;2.48;82.40;100473.50;7308114;39;20313;31
2024/01/28 23:49:32;;;;;;;5.25;3.55;;;;;;;2.41;83.04;100468.59;7279979;39;20794;31
2024/01/28 23:54:53;;;;;;;5.37;3.80;;;;;;;2.38;84.03;100468.75;7300617;39;20911;31
